Latest Coastal Weather Observations for Pirlangimpi (Garden Point)

IDD60701

Issued at 4:01 am CST Tuesday 26 September 2017 (issued every 10 minutes, with the page automatically refreshed every 10 minutes)

About coastal observations | Map of coastal stations | Coastal observations for NT | Marine services | Other Formats
Station Details ID: 014142 Name: PIRLANGIMPI AIRPORT Lat: -11.40 Lon: 130.42 Height: 18.3 m
Data from the previous 72 hours. | See also: Recent months at Pirlangimpi (Garden Point)
Date/Time
CST
Temp
°C
Wind Pressure Rain since
9am
mm
Weather Cloud Vis
km
Sea
Height
m
Swell
Dir  Spd
kts
Gust
kts
hPa Trend Height
m
Period
s
Dir
26/04:00am 23.4 NE 1 1 1010.4 - 0.0 - - - - - - -
26/03:30am 23.5 CALM 0 0 1010.3 - 0.0 - - - - - - -
26/03:00am 23.6 NNE 1 2 1010.3 - 0.0 - - - - - - -
26/02:30am 23.7 CALM 0 0 1010.4 - 0.0 - - - - - - -
26/02:00am 23.9 CALM 0 0 1010.6 - 0.0 - - - - - - -
26/01:30am 24.1 NNE 1 1 1010.8 - 0.0 - - - - - - -
26/01:00am 24.4 NE 2 2 1010.9 - 0.0 - - - - - - -
26/12:30am 24.6 NE 2 2 1011.1 - 0.0 - - - - - - -
26/12:00am 24.9 NE 2 3 1011.4 - 0.0 - - - - - - -
 
Date/Time
CST
Temp
°C
Wind Pressure Rain since
9am
mm
Weather Cloud Vis
km
Sea
Height
m
Swell
Dir  Spd
kts
Gust
kts
hPa Trend Height
m
Period
s
Dir
25/11:30pm 25.1 NE 1 3 1011.6 - 0.0 - - - - - - -
25/11:00pm 25.2 NE 2 3 1011.8 - 0.0 - - - - - - -
25/10:30pm 24.7 CALM 0 3 1011.6 - 0.0 - - - - - - -
25/10:00pm 25.1 CALM 0 0 1011.7 - 0.0 - - - - - - -
25/09:30pm 25.4 CALM 0 0 1011.5 - 0.0 - - - - - - -
25/09:00pm 26.0 CALM 0 0 1011.2 - 0.0 - - - - - - -
25/08:30pm 26.5 CALM 0 0 1011.0 - 0.0 - - - - - - -
25/08:00pm 26.9 N 1 2 1010.7 - 0.0 - - - - - - -
25/07:30pm 27.5 NNW 2 4 1010.5 - 0.0 - - - - - - -
25/07:00pm 28.0 NNW 3 6 1010.3 - 0.0 - - - - - - -
25/06:30pm 28.5 NW 3 6 1009.9 - 0.0 - - - - - - -
25/06:00pm 29.0 NW 5 9 1009.6 - 0.0 - - - - - - -
25/05:30pm 30.3 NNW 4 8 1009.6 - 0.0 - - - - - - -
25/05:00pm 31.2 NW 4 9 1009.4 - 0.0 - - - - - - -
25/04:30pm 30.9 NW 7 12 1009.3 - 0.0 - - - - - - -
25/04:00pm 31.1 NNW 7 14 1009.3 - 0.0 - - - - - - -
25/03:30pm 32.1 NNW 6 10 1009.5 - 0.0 - - - - - - -
25/03:00pm 32.4 NW 7 11 1009.7 - 0.0 - - - - - - -
25/02:30pm 32.3 NW 7 13 1010.0 - 0.0 - - - - - - -
25/02:00pm 32.1 NW 7 12 1010.3 - 0.0 - - - - - - -
25/01:30pm 32.5 NW 7 11 1010.7 - 0.0 - - - - - - -
25/01:00pm 32.1 NW 5 10 1011.0 - 0.0 - - - - - - -
25/12:30pm 32.5 WSW 4 7 1011.5 - 0.0 - - - - - - -
25/12:00pm 32.3 SSW 7 9 1012.0 - 0.0 - - - - - - -
25/11:30am 30.9 SSW 7 9 1012.4 - 0.0 - - - - - - -
25/11:00am 31.0 SSW 7 9 1012.7 - 0.0 - - - - - - -
25/10:30am 30.1 SSW 5 8 1013.0 - 0.0 - - - - - - -
25/10:00am 30.1 SSW 6 8 1013.0 - 0.0 - - - - - - -
25/09:30am 29.2 WSW 3 5 1013.2 - 0.0 - - - - - - -
25/09:00am 28.9 NNW 2 3 1013.1 - 0.2 - - - - - - -
25/08:30am 27.5 ENE 1 2 1012.8 - 0.2 - - - - - - -
25/08:00am 25.8 ENE 1 2 1012.6 - 0.2 - - - - - - -
25/07:30am 23.5 CALM 0 0 1012.5 - 0.2 - - - - - - -
25/07:00am 22.6 CALM 0 1 1012.1 - 0.2 - - - - - - -
25/06:30am 22.2 CALM 0 0 1011.8 - 0.2 - - - - - - -
25/06:00am 22.3 CALM 0 0 1011.7 - 0.2 - - - - - - -
25/05:30am 22.4 NE 2 2 1011.4 - 0.2 - - - - - - -
25/05:00am 22.4 NE 1 1 1011.2 - 0.2 - - - - - - -
25/04:30am 22.6 NE 1 2 1011.0 - 0.2 - - - - - - -
25/04:00am 22.6 ESE 1 2 1010.9 - 0.2 - - - - - - -
25/03:30am 22.8 CALM 0 0 1010.8 - 0.2 - - - - - - -
25/03:00am 23.0 CALM 0 0 1010.8 - 0.2 - - - - - - -
25/02:30am 23.4 CALM 0 0 1010.8 - 0.2 - - - - - - -
25/02:00am 23.7 SE 1 2 1010.8 - 0.2 - - - - - - -
25/01:30am 23.9 NNE 1 2 1010.8 - 0.2 - - - - - - -
25/01:00am 24.0 N 1 2 1011.1 - 0.2 - - - - - - -
25/12:30am 24.2 N 1 2 1011.5 - 0.2 - - - - - - -
25/12:00am 24.0 NNE 1 2 1011.7 - 0.2 - - - - - - -
 
Date/Time
CST
Temp
°C
Wind Pressure Rain since
9am
mm
Weather Cloud Vis
km
Sea
Height
m
Swell
Dir  Spd
kts
Gust
kts
hPa Trend Height
m
Period
s
Dir
24/11:30pm 24.1 CALM 0 0 1012.0 - 0.2 - - - - - - -
24/11:00pm 24.5 CALM 0 1 1012.0 - 0.2 - - - - - - -
24/10:30pm 24.7 CALM 0 2 1012.1 - 0.2 - - - - - - -
24/10:00pm 25.1 N 2 4 1011.9 - 0.2 - - - - - - -
24/09:30pm 25.0 N 1 3 1011.7 - 0.2 - - - - - - -
24/09:00pm 25.5 N 1 2 1011.4 - 0.2 - - - - - - -
24/08:30pm 25.7 N 2 3 1010.9 - 0.2 - - - - - - -
24/08:00pm 26.1 NNE 2 3 1010.5 - 0.2 - - - - - - -
24/07:30pm 26.8 N 2 3 1010.4 - 0.2 - - - - - - -
24/07:00pm 27.4 N 2 3 1010.0 - 0.2 - - - - - - -
24/06:30pm 28.4 NNW 2 3 1010.0 - 0.2 - - - - - - -
24/06:00pm 28.7 NW 4 7 1009.7 - 0.2 - - - - - - -
24/05:30pm 29.6 NW 4 8 1009.5 - 0.2 - - - - - - -
24/05:00pm 29.1 NNW 5 10 1009.4 - 0.2 - - - - - - -
24/04:30pm 30.2 NW 6 12 1009.2 - 0.2 - - - - - - -
24/04:00pm 31.0 NW 7 11 1009.3 - 0.2 - - - - - - -
24/03:30pm 31.4 NW 6 13 1009.3 - 0.2 - - - - - - -
24/03:00pm 32.4 NW 7 11 1009.4 - 0.2 - - - - - - -
24/02:30pm 32.0 NW 7 13 1009.6 - 0.2 - - - - - - -
24/02:00pm 32.5 NW 6 11 1009.9 - 0.2 - - - - - - -
24/01:30pm 33.1 WNW 5 9 1010.3 - 0.2 - - - - - - -
24/01:00pm 31.6 NW 6 11 1010.7 - 0.2 - - - - - - -
24/12:30pm 31.1 NW 7 12 1011.4 - 0.2 - - - - - - -
24/12:00pm 33.1 NE 4 10 1011.8 - 0.2 Recent precip. - - - - - -
24/11:30am 32.2 N 4 7 1012.1 - 0.2 - - - - - - -
24/11:00am 29.5 SSW 5 8 1012.3 - 0.0 - - - - - - -
24/10:30am 29.5 SSW 5 6 1012.6 - 0.0 - - - - - - -
24/10:00am 28.8 S 2 4 1012.7 - 0.0 - - - - - - -
24/09:30am 28.8 SE 2 4 1013.1 - 0.0 - - - - - - -
24/09:00am 27.9 SE 3 5 1013.2 - 1.2 - - - - - - -
24/08:30am 26.3 SSE 3 4 1012.9 - 1.2 - - - - - - -
24/08:00am 25.1 SSE 2 3 1012.7 - 1.2 - - - - - - -
24/07:30am 24.1 SE 1 2 1012.7 - 1.2 - - - - - - -
24/07:00am 23.6 SE 2 2 1012.5 - 1.2 - - - - - - -
24/06:30am 23.1 SE 2 2 1012.0 - 1.2 - - - - - - -
24/06:00am 22.6 CALM 0 0 1011.8 - 1.2 - - - - - - -
24/05:30am 22.7 CALM 0 0 1011.7 - 1.2 - - - - - - -
24/05:00am 23.0 CALM 0 0 1011.3 - 1.2 - - - - - - -
24/04:30am 23.2 CALM 0 0 1011.1 - 1.2 - - - - - - -
24/04:00am 23.0 CALM 0 0 1011.1 - 1.2 - - - - - - -
24/03:30am 23.0 CALM 0 0 1011.2 - 1.2 - - - - - - -
24/03:00am 23.2 CALM 0 0 1011.5 - 1.2 - - - - - - -
24/02:30am 23.2 CALM 0 0 1011.6 - 1.2 - - - - - - -
24/02:00am 23.3 CALM 0 0 1011.9 - 1.2 - - - - - - -
24/01:30am 23.5 CALM 0 0 1012.1 - 1.2 - - - - - - -
24/01:00am 23.8 CALM 0 0 1012.4 - 1.2 - - - - - - -
24/12:30am 23.9 CALM 0 0 1012.4 - 1.2 - - - - - - -
24/12:00am 23.7 CALM 0 0 1012.6 - 1.2 - - - - - - -
 
Date/Time
CST
Temp
°C
Wind Pressure Rain since
9am
mm
Weather Cloud Vis
km
Sea
Height
m
Swell
Dir  Spd
kts
Gust
kts
hPa Trend Height
m
Period
s
Dir
23/11:30pm 23.8 CALM 0 0 1012.9 - 1.2 - - - - - - -
23/11:00pm 23.9 CALM 0 0 1013.0 - 1.2 - - - - - - -
23/10:30pm 24.1 CALM 0 0 1012.9 - 1.2 - - - - - - -
23/10:00pm 24.5 CALM 0 0 1012.8 - 1.2 - - - - - - -
23/09:30pm 24.7 CALM 0 0 1012.5 - 1.2 - - - - - - -
23/09:00pm 24.9 CALM 0 0 1012.4 - 1.2 - - - - - - -
23/08:30pm 25.2 N 1 2 1012.0 - 1.2 - - - - - - -
23/08:00pm 25.4 N 1 3 1011.7 - 1.2 - - - - - - -
23/07:30pm 25.8 N 1 2 1011.3 - 1.2 - - - - - - -
23/07:00pm 26.5 CALM 0 1 1010.9 - 1.2 - - - - - - -
23/06:30pm 27.1 N 3 5 1010.7 - 1.2 - - - - - - -
23/06:00pm 27.7 WNW 2 5 1010.8 - 1.2 - - - - - - -
23/05:30pm 28.1 NW 3 6 1010.9 - 1.2 - - - - - - -
23/05:00pm 27.8 WNW 2 5 1010.8 - 1.2 - - - - - - -
23/04:30pm 27.3 WNW 2 4 1010.7 - 1.2 - - - - - - -
23/04:00pm 27.2 N 2 5 1010.8 - 0.8 - - - - - - -
23/03:30pm 29.4 NW 5 9 1010.4 - 0.0 - - - - - - -
23/03:00pm 30.1 NW 4 8 1010.5 - 0.0 - - - - - - -
23/02:30pm 31.1 NNW 6 9 1010.5 - 0.0 - - - - - - -
23/02:00pm 32.2 NW 6 12 1010.7 - 0.0 - - - - - - -
23/01:30pm 32.1 W 2 4 1010.8 - 0.0 - - - - - - -
23/01:00pm 33.0 SSW 4 6 1011.2 - 0.0 - - - - - - -
23/12:30pm 32.6 SSW 6 9 1011.7 - 0.0 - - - - - - -
23/12:00pm 32.7 SSW 4 7 1012.3 - 0.0 - - - - - - -
23/11:30am 32.6 SE 6 10 1012.7 - 0.0 - - - - - - -
23/11:00am 32.4 SSE 6 11 1013.2 - 0.0 - - - - - - -
23/10:30am 31.6 SE 5 8 1013.6 - 0.0 - - - - - - -
23/10:00am 30.2 SE 5 9 1013.9 - 0.0 - - - - - - -
23/09:30am 30.9 SE 4 5 1014.0 - 0.0 - - - - - - -
23/09:00am 29.5 SE 3 8 1013.9 - 0.0 - - - - - - -
23/08:30am 28.0 ESE 3 5 1013.9 - 0.0 - - - - - - -
23/08:00am 26.6 ESE 2 4 1013.6 - 0.0 - - - - - - -
23/07:30am 25.0 SE 2 3 1013.3 - 0.0 - - - - - - -
23/07:00am 23.8 ESE 1 1 1012.9 - 0.0 - - - - - - -
23/06:30am 23.7 ESE 1 1 1012.7 - 0.0 - - - - - - -
23/06:00am 24.0 ESE 1 2 1012.4 - 0.0 - - - - - - -
23/05:30am 24.1 ESE 1 2 1012.2 - 0.0 - - - - - - -
23/05:00am 24.3 SE 2 3 1012.0 - 0.0 - - - - - - -
23/04:30am 24.6 SE 2 3 1012.0 - 0.0 - - - - - - -

Other Formats:

Comma delimited format used in spreadsheet applications
http://www.bom.gov.au/fwo/IDD60701/IDD60701.94119.axf

JavaScript Object Notation format (JSON) in row-major order
http://www.bom.gov.au/fwo/IDD60701/IDD60701.94119.json